Prairie Dog, Nebraska
Current Conditions -  °F | °C
As of 4:15 AM on Thursday 18 Dec 2014 (Local Time) from KHDE Reporting Station
Haze Haze  
Wind Chill: 24°   Ceiling: 600
Heat Index: 24°   Visibility: 5mi
Dew Point: 22°   Wind: 0mph
Humidity: 94%   Direction: NA
Pressure: 30.12"   Gusts: NA
Location:  40.1838°N, 99.3522°W
Report Text: KHDE 181015Z AUTO 00000KT 5SM BR OVC006 M04/M05 A3012 RMK AO2 T10451053
Loading
Personal Weather Stations






























Interactive Weather Map New forecast layout! Learn more

10-Day Weather Forecast

Advertisements
Track Severe Weather on mobile